Time;durP1;ratioP1;P1;durP2;ratioP2;P2;SDS_P1;SDS_P2;PMS_P1;PMS_P2;Temp;Humidity;BMP_temperature;BMP_pressure;BME280_temperature;BME280_humidity;BME280_pressure;Samples;Min_cycle;Max_cycle;Signal;HPM_P1;HPM_P2
2022/05/01 00:00:54;;;;;;;;;7.75;7.75;;;;;12.90;45.29;102194.72;4943901;28;45964;-69
2022/05/01 00:03:31;;;;;;;;;10.00;8.50;;;;;12.86;45.43;102194.81;4943174;28;45208;-68
2022/05/01 00:06:03;;;;;;;;;21.00;20.25;;;;;12.84;45.44;102191.41;4943591;28;45340;-68
2022/05/01 00:08:30;;;;;;;;;10.75;9.25;;;;;12.82;45.99;102185.34;4943617;28;45421;-68
2022/05/01 00:10:56;;;;;;;;;8.00;7.75;;;;;12.81;45.84;102190.69;4943168;28;45252;-68
2022/05/01 00:13:22;;;;;;;;;11.75;9.00;;;;;12.78;45.70;102188.19;4943422;28;45354;-68
2022/05/01 00:15:48;;;;;;;;;9.00;7.50;;;;;12.71;45.90;102182.31;4943424;28;45508;-68
2022/05/01 00:18:14;;;;;;;;;10.25;9.00;;;;;12.65;45.86;102185.25;4943347;28;45263;-68
2022/05/01 00:20:40;;;;;;;;;8.75;6.75;;;;;12.62;46.29;102187.16;4943094;28;45394;-68
2022/05/01 00:23:05;;;;;;;;;14.50;9.75;;;;;12.60;46.09;102186.38;4925861;28;45413;-69
2022/05/01 00:25:32;;;;;;;;;10.00;7.00;;;;;12.57;46.04;102176.78;4943242;28;45289;-68
2022/05/01 00:27:58;;;;;;;;;9.75;9.00;;;;;12.54;46.24;102174.28;4943542;28;45212;-68
2022/05/01 00:30:26;;;;;;;;;8.25;7.25;;;;;12.55;46.57;102168.06;4942887;28;45312;-69
2022/05/01 00:38:20;;;;;;;;;11.50;8.00;;;;;12.51;46.56;102172.63;4942351;28;45238;-68
2022/05/01 00:40:46;;;;;;;;;9.25;8.50;;;;;12.53;46.73;102172.56;4942345;28;45355;-68
2022/05/01 00:43:11;;;;;;;;;10.50;10.00;;;;;12.50;46.79;102183.28;4942953;28;45238;-69
2022/05/01 00:45:37;;;;;;;;;9.25;9.25;;;;;12.46;46.80;102177.25;4943007;28;45374;-68
2022/05/01 00:48:04;;;;;;;;;9.75;9.50;;;;;12.47;46.72;102170.19;4942899;28;45455;-68
2022/05/01 00:50:30;;;;;;;;;11.25;9.25;;;;;12.43;46.91;102177.41;4942448;28;45549;-69
2022/05/01 00:52:55;;;;;;;;;11.00;10.00;;;;;12.44;46.89;102165.91;4942776;28;45282;-68
2022/05/01 00:55:21;;;;;;;;;13.00;9.00;;;;;12.44;46.89;102167.69;4942704;28;45325;-68
2022/05/01 00:57:47;;;;;;;;;13.00;9.00;;;;;12.45;47.03;102164.13;4942825;28;45610;-68
2022/05/01 01:00:16;;;;;;;;;9.25;9.00;;;;;12.40;47.01;102163.44;4942975;28;46194;-68
2022/05/01 01:02:42;;;;;;;;;12.50;8.00;;;;;12.34;47.02;102167.25;4942632;28;45345;-68
2022/05/01 01:05:08;;;;;;;;;13.25;11.75;;;;;12.31;47.23;102164.72;4942450;28;45411;-68
2022/05/01 01:07:34;;;;;;;;;9.00;9.00;;;;;12.25;47.01;102165.84;4942655;28;45371;-68
2022/05/01 01:10:00;;;;;;;;;10.75;10.25;;;;;12.24;47.35;102158.88;4942391;28;45371;-69
2022/05/01 01:15:11;;;;;;;;;12.25;11.00;;;;;12.24;47.67;102156.22;4942861;28;45316;-68
2022/05/01 01:17:41;;;;;;;;;10.00;9.00;;;;;12.26;47.37;102154.38;4942521;28;45535;-68
2022/05/01 01:20:28;;;;;;;;;11.00;10.75;;;;;12.22;47.54;102154.53;4942112;28;45395;-68
2022/05/01 01:22:56;;;;;;;;;12.75;10.25;;;;;12.16;47.78;102158.31;4942190;28;45341;-68
2022/05/01 01:25:25;;;;;;;;;10.75;9.75;;;;;12.18;47.46;102156.47;4942428;28;45515;-68
2022/05/01 01:27:53;;;;;;;;;12.25;10.50;;;;;12.19;47.73;102155.56;4942583;28;45226;-68
2022/05/01 01:33:03;;;;;;;;;11.00;9.00;;;;;12.17;47.64;102153.91;4942588;28;45391;-68
2022/05/01 01:35:29;;;;;;;;;13.50;12.25;;;;;12.16;47.69;102152.16;4942287;28;45296;-69
2022/05/01 01:37:56;;;;;;;;;12.25;12.25;;;;;12.12;47.88;102151.47;4942579;28;45402;-68
2022/05/01 01:40:35;;;;;;;;;13.50;10.00;;;;;12.07;47.96;102153.41;4941908;28;45308;-68
2022/05/01 01:43:01;;;;;;;;;13.00;11.00;;;;;12.04;47.98;102150.06;4942044;28;45470;-68
2022/05/01 01:45:28;;;;;;;;;12.25;11.50;;;;;12.04;47.88;102150.94;4942271;28;45432;-69
2022/05/01 01:48:17;;;;;;;;;13.00;10.50;;;;;12.00;48.18;102149.31;4942621;28;45252;-68
2022/05/01 01:50:53;;;;;;;;;15.25;12.00;;;;;11.94;48.17;102152.25;4927016;28;45353;-69
2022/05/01 01:53:19;;;;;;;;;15.00;14.25;;;;;11.92;48.47;102160.22;4945928;28;45557;-68
2022/05/01 01:55:44;;;;;;;;;18.50;12.50;;;;;11.93;48.46;102154.03;4945562;28;45382;-69
2022/05/01 01:58:10;;;;;;;;;15.25;11.25;;;;;11.91;48.78;102152.34;4945545;28;45377;-69
2022/05/01 02:00:35;;;;;;;;;15.00;10.00;;;;;11.91;48.92;102149.72;4928802;28;45412;-69
2022/05/01 02:03:04;;;;;;;;;12.75;10.75;;;;;11.92;48.93;102151.44;4945063;28;45201;-69
2022/05/01 02:05:30;;;;;;;;;17.25;13.25;;;;;11.93;48.55;102148.75;4945372;28;45348;-68
2022/05/01 02:07:56;;;;;;;;;13.00;11.75;;;;;11.88;48.89;102144.59;4945343;28;45336;-68
2022/05/01 02:10:22;;;;;;;;;13.00;13.00;;;;;11.79;49.01;102140.50;4944945;28;46191;-68
2022/05/01 02:12:48;;;;;;;;;13.00;12.00;;;;;11.77;49.22;102141.47;4927859;28;45261;-68
2022/05/01 02:15:15;;;;;;;;;16.25;13.75;;;;;11.74;49.38;102135.41;4945165;28;45296;-68
2022/05/01 02:17:41;;;;;;;;;13.00;11.25;;;;;11.72;49.01;102133.78;4945117;28;45259;-68
2022/05/01 02:20:08;;;;;;;;;16.75;12.00;;;;;11.69;49.12;102132.13;4927505;28;45367;-68
2022/05/01 02:22:34;;;;;;;;;11.25;10.00;;;;;11.66;49.55;102136.66;4945036;28;45360;-68
2022/05/01 02:25:00;;;;;;;;;14.75;12.25;;;;;11.61;49.32;102135.97;4945095;28;45263;-68
2022/05/01 02:27:26;;;;;;;;;16.25;13.25;;;;;11.56;49.58;102135.31;4945001;28;45376;-68
2022/05/01 02:29:51;;;;;;;;;16.00;11.00;;;;;11.53;49.73;102138.94;4944829;28;46378;-68
2022/05/01 02:32:16;;;;;;;;;13.75;12.00;;;;;11.50;49.83;102139.06;4944951;28;45258;-68
2022/05/01 02:34:42;;;;;;;;;16.75;12.75;;;;;11.49;49.83;102136.50;4944991;28;45300;-68
2022/05/01 02:37:07;;;;;;;;;18.50;14.25;;;;;11.49;49.71;102132.06;4927677;28;45282;-69
2022/05/01 02:39:34;;;;;;;;;14.25;14.25;;;;;11.52;49.98;102128.44;4944678;28;45982;-69
2022/05/01 02:42:00;;;;;;;;;15.50;13.00;;;;;11.54;49.75;102127.47;4944334;28;45344;-68
2022/05/01 02:44:25;;;;;;;;;14.50;13.25;;;;;11.51;49.79;102127.59;4944920;28;45323;-68
2022/05/01 02:46:51;;;;;;;;;13.25;12.00;;;;;11.52;50.01;102124.03;4944615;28;45468;-69
2022/05/01 02:49:16;;;;;;;;;14.00;11.25;;;;;11.48;50.08;102118.94;4944382;28;45316;-70
2022/05/01 02:51:42;;;;;;;;;17.75;16.00;;;;;11.48;49.88;102118.94;4927215;28;45327;-69
2022/05/01 02:54:08;;;;;;;;;16.00;16.00;;;;;11.49;50.01;102115.38;4944848;28;45469;-68
2022/05/01 02:56:34;;;;;;;;;18.00;12.50;;;;;11.49;50.33;102118.88;4944385;28;45362;-69
2022/05/01 02:59:00;;;;;;;;;10.25;10.25;;;;;11.52;50.09;102118.75;4944414;28;46115;-69
2022/05/01 03:01:26;;;;;;;;;16.75;15.00;;;;;11.55;50.31;102116.00;4943474;28;45340;-69
2022/05/01 03:03:51;;;;;;;;;15.25;14.00;;;;;11.54;50.00;102111.66;4944415;28;45271;-69
2022/05/01 03:06:17;;;;;;;;;18.00;12.00;;;;;11.51;50.60;102103.84;4944350;28;45173;-68
2022/05/01 03:08:44;;;;;;;;;20.00;13.00;;;;;11.46;50.07;102105.81;4944206;28;45212;-68
2022/05/01 03:11:10;;;;;;;;;13.50;13.50;;;;;11.44;49.97;102103.22;4944104;28;45157;-68
2022/05/01 03:13:36;;;;;;;;;14.50;12.75;;;;;11.41;50.46;102103.38;4927119;28;45359;-68
2022/05/01 03:16:01;;;;;;;;;16.00;14.00;;;;;11.36;50.53;102102.69;4944419;28;45248;-68
2022/05/01 03:23:55;;;;;;;;;15.50;11.50;;;;;11.28;50.97;102101.28;4944318;28;45252;-68
2022/05/01 03:26:20;;;;;;;;;17.50;14.00;;;;;11.26;50.89;102089.94;4944252;28;45156;-69
2022/05/01 03:28:47;;;;;;;;;15.25;14.75;;;;;11.22;51.01;102086.59;4926513;28;46631;-68
2022/05/01 03:31:13;;;;;;;;;15.25;11.25;;;;;11.22;50.95;102090.97;4943862;28;45407;-68
2022/05/01 03:33:39;;;;;;;;;14.75;12.00;;;;;11.14;50.76;102086.88;4943772;28;45300;-68
2022/05/01 03:36:06;;;;;;;;;16.75;14.50;;;;;11.12;51.00;102088.72;4943983;28;45409;-68
2022/05/01 03:38:42;;;;;;;;;17.50;15.50;;;;;11.14;51.37;102091.31;4926201;28;47833;-68
2022/05/01 03:41:12;;;;;;;;;11.00;10.50;;;;;11.12;51.38;102086.06;4943505;28;45255;-68
2022/05/01 03:43:38;;;;;;;;;15.50;11.75;;;;;11.10;51.13;102101.09;4943994;28;45311;-68
2022/05/01 03:46:06;;;;;;;;;16.75;16.25;;;;;11.11;51.17;102094.03;4943961;28;45422;-68
2022/05/01 03:48:32;;;;;;;;;16.25;15.75;;;;;11.11;51.28;102097.53;4943241;28;46285;-69
2022/05/01 03:50:59;;;;;;;;;15.25;15.00;;;;;11.11;51.01;102083.50;4943702;28;45240;-68
2022/05/01 03:53:25;;;;;;;;;19.00;16.00;;;;;11.10;50.98;102082.63;4926274;28;45298;-68
2022/05/01 03:55:51;;;;;;;;;15.25;14.50;;;;;11.07;51.35;102084.56;4943745;28;45225;-68
2022/05/01 03:58:18;;;;;;;;;19.25;17.25;;;;;11.07;51.31;102082.78;4943587;28;46571;-68
2022/05/01 04:00:44;;;;;;;;;17.00;16.00;;;;;11.07;51.37;102093.31;4943578;28;45478;-68
2022/05/01 04:03:11;;;;;;;;;19.25;13.75;;;;;11.05;51.73;102087.22;4943448;28;45360;-68
2022/05/01 04:05:37;;;;;;;;;15.00;13.00;;;;;11.05;51.90;102089.88;4943518;28;45244;-68
2022/05/01 04:08:03;;;;;;;;;17.00;15.25;;;;;11.05;51.95;102086.38;4943147;28;45919;-69
2022/05/01 04:10:29;;;;;;;;;17.25;15.25;;;;;11.02;51.72;102083.88;4943430;28;45288;-69
2022/05/01 04:12:54;;;;;;;;;17.50;13.25;;;;;10.95;51.91;102083.25;4943533;28;45249;-69
2022/05/01 04:15:20;;;;;;;;;23.00;18.25;;;;;10.97;51.90;102088.44;4943878;28;45149;-70
2022/05/01 04:17:45;;;;;;;;;18.00;16.50;;;;;10.98;51.52;102085.78;4943430;28;45444;-70
2022/05/01 04:20:15;;;;;;;;;15.25;12.25;;;;;10.98;52.29;102084.88;4942974;28;45247;-69
2022/05/01 04:22:48;;;;;;;;;20.50;16.50;;;;;10.99;51.83;102084.84;4943215;28;45385;-68
2022/05/01 04:25:22;;;;;;;;;24.00;18.25;;;;;11.02;51.74;102083.88;4943264;28;45251;-68
2022/05/01 04:27:53;;;;;;;;;15.25;15.25;;;;;11.03;51.78;102080.31;4943038;28;45701;-68
2022/05/01 04:30:20;;;;;;;;;19.25;16.50;;;;;11.01;52.07;102079.53;4943003;28;45366;-68
2022/05/01 04:32:55;;;;;;;;;22.50;18.00;;;;;10.98;52.19;102075.25;4943336;28;45238;-69
2022/05/01 04:35:28;;;;;;;;;26.25;20.50;;;;;11.01;52.25;102088.28;4943267;28;45176;-69
2022/05/01 04:37:59;;;;;;;;;22.50;18.75;;;;;11.02;51.66;102086.50;4943089;28;45519;-68
2022/05/01 04:40:28;;;;;;;;;14.75;13.25;;;;;11.00;52.23;102081.31;4942810;28;45267;-69
2022/05/01 04:43:02;;;;;;;;;24.00;20.75;;;;;11.00;52.25;102081.31;4942836;28;45342;-68
2022/05/01 04:45:30;;;;;;;;;19.00;18.25;;;;;11.00;51.81;102086.56;4942941;28;45441;-69
2022/05/01 04:47:55;;;;;;;;;24.25;17.50;;;;;10.95;52.32;102085.88;4942625;28;45327;-68
2022/05/01 04:50:21;;;;;;;;;20.25;17.75;;;;;10.92;52.30;102091.28;4942656;28;45254;-68
2022/05/01 04:52:46;;;;;;;;;26.00;19.75;;;;;10.91;52.42;102089.56;4942984;28;45245;-68
2022/05/01 04:55:12;;;;;;;;;24.50;17.75;;;;;10.91;52.69;102094.84;4942864;28;45225;-68
2022/05/01 04:57:39;;;;;;;;;20.50;16.50;;;;;10.92;52.23;102095.69;4942617;28;46067;-68
2022/05/01 05:00:06;;;;;;;;;24.25;18.00;;;;;10.90;52.60;102087.81;4942924;28;45409;-68
2022/05/01 05:02:39;;;;;;;;;19.75;19.00;;;;;10.92;52.56;102090.44;4942794;28;45241;-68
2022/05/01 05:05:07;;;;;;;;;24.75;21.00;;;;;10.87;52.45;102087.97;4942607;28;45267;-68
2022/05/01 05:07:32;;;;;;;;;22.25;18.00;;;;;10.86;52.76;102100.28;4942438;28;45324;-68
2022/05/01 05:09:58;;;;;;;;;20.50;19.00;;;;;10.88;52.20;102093.16;4956999;28;45429;-69
2022/05/01 05:12:24;;;;;;;;;24.75;20.50;;;;;10.89;52.47;102101.94;4942714;28;45290;-68
2022/05/01 05:14:52;;;;;;;;;20.00;16.00;;;;;10.92;52.79;102109.75;4942710;28;45390;-68
2022/05/01 05:17:22;;;;;;;;;26.75;24.00;;;;;10.88;52.42;102105.50;4942447;28;45510;-69
2022/05/01 05:19:48;;;;;;;;;21.00;17.00;;;;;10.86;52.88;102109.97;4942336;28;45344;-69
2022/05/01 05:22:14;;;;;;;;;15.50;15.50;;;;;10.88;52.60;102108.97;4942371;28;45394;-69
2022/05/01 05:24:40;;;;;;;;;20.50;18.50;;;;;10.94;52.99;102114.94;4942797;28;45443;-69
2022/05/01 05:27:06;;;;;;;;;21.75;21.75;;;;;10.97;52.46;102114.81;4945670;28;45291;-69
2022/05/01 05:29:31;;;;;;;;;13.75;12.25;;;;;11.02;52.37;102115.50;4945768;28;45254;-69
2022/05/01 05:31:57;;;;;;;;;23.00;18.75;;;;;11.06;52.48;102125.88;4945844;28;45583;-69
2022/05/01 05:34:22;;;;;;;;;29.75;19.50;;;;;11.10;52.64;102124.84;4945669;28;45263;-69
2022/05/01 05:36:48;;;;;;;;;24.75;18.00;;;;;11.12;52.47;102116.84;4945536;28;46219;-69
2022/05/01 05:39:14;;;;;;;;;17.75;17.00;;;;;11.13;52.63;102119.44;4945532;28;45389;-69
2022/05/01 05:41:40;;;;;;;;;17.50;15.00;;;;;11.19;52.55;102115.69;4945367;28;45490;-68
2022/05/01 05:44:05;;;;;;;;;22.50;18.75;;;;;11.25;52.67;102120.72;4945765;28;45502;-68
2022/05/01 05:46:31;;;;;;;;;23.50;20.25;;;;;11.29;52.37;102117.03;4945526;28;45931;-68
2022/05/01 05:48:57;;;;;;;;;26.25;22.50;;;;;11.34;52.71;102115.09;4945348;28;45378;-68
2022/05/01 05:51:22;;;;;;;;;18.25;16.25;;;;;11.44;52.28;102120.84;4945611;28;45252;-68
2022/05/01 05:53:52;;;;;;;;;17.75;17.75;;;;;11.51;52.13;102111.75;4945609;28;45631;-68
2022/05/01 05:56:18;;;;;;;;;17.00;15.25;;;;;11.54;52.19;102116.06;4945512;28;46653;-68
2022/05/01 05:58:44;;;;;;;;;22.75;21.50;;;;;11.58;52.07;102115.88;4945246;28;45313;-68
2022/05/01 06:01:10;;;;;;;;;22.00;20.50;;;;;11.63;52.18;102108.63;4946020;28;45340;-69
2022/05/01 06:03:36;;;;;;;;;20.75;19.25;;;;;11.70;51.59;102104.81;4945218;28;45525;-68
2022/05/01 06:06:02;;;;;;;;;24.75;21.00;;;;;11.77;51.94;102099.25;4945257;28;45418;-68
2022/05/01 06:08:28;;;;;;;;;23.50;21.50;;;;;11.88;52.03;102103.19;4945005;28;45263;-68
2022/05/01 06:10:53;;;;;;;;;26.00;20.00;;;;;12.01;51.58;102109.66;4945357;28;45153;-68
2022/05/01 06:13:19;;;;;;;;;22.25;18.50;;;;;12.11;51.54;102109.25;4945270;28;45223;-68
2022/05/01 06:15:44;;;;;;;;;24.75;19.50;;;;;12.16;51.50;102109.91;4945404;28;45773;-68
2022/05/01 06:18:10;;;;;;;;;27.25;24.25;;;;;12.16;51.20;102113.41;4946205;28;45193;-69
2022/05/01 06:20:36;;;;;;;;;26.25;21.00;;;;;12.22;51.08;102109.63;4929214;28;45439;-69
2022/05/01 06:23:02;;;;;;;;;31.50;24.25;;;;;12.31;51.37;102106.59;4945692;28;45350;-69
2022/05/01 06:25:28;;;;;;;;;25.75;23.50;;;;;12.37;50.93;102111.59;4944641;28;45260;-69
2022/05/01 06:27:54;;;;;;;;;25.25;22.00;;;;;12.47;51.36;102107.59;4945030;28;45336;-69
2022/05/01 06:30:20;;;;;;;;;29.75;23.50;;;;;12.59;51.24;102122.06;4945154;28;45331;-68
2022/05/01 06:32:45;;;;;;;;;23.75;22.25;;;;;12.58;50.81;102110.63;4945044;28;45649;-68
2022/05/01 06:35:11;;;;;;;;;28.00;25.25;;;;;12.63;50.99;102114.84;4927328;28;45679;-69
2022/05/01 06:37:37;;;;;;;;;27.25;26.00;;;;;12.72;51.05;102120.59;4943703;28;45317;-69
2022/05/01 06:40:05;;;;;;;;;28.25;21.00;;;;;12.82;50.79;102118.38;4944845;28;45290;-69
2022/05/01 06:42:32;;;;;;;;;32.50;23.50;;;;;12.93;50.43;102123.16;4944139;28;45153;-69
2022/05/01 06:44:58;;;;;;;;;25.25;21.00;;;;;13.00;50.54;102128.06;4944514;28;46167;-69
2022/05/01 06:47:24;;;;;;;;;26.75;23.25;;;;;13.08;50.32;102125.91;4944768;28;45495;-69
2022/05/01 06:49:50;;;;;;;;;32.50;23.75;;;;;13.14;50.33;102133.56;4927191;28;45456;-69
2022/05/01 06:52:23;;;;;;;;;22.50;16.75;;;;;13.19;50.31;102145.72;4944896;28;45247;-69
2022/05/01 06:54:52;;;;;;;;;30.00;26.00;;;;;13.21;50.05;102136.81;4944254;28;45403;-69
2022/05/01 06:57:17;;;;;;;;;31.75;27.75;;;;;13.22;50.33;102135.88;4944704;28;45165;-69
2022/05/01 06:59:43;;;;;;;;;27.75;24.00;;;;;13.25;50.04;102137.53;4944432;28;45428;-69
2022/05/01 07:02:08;;;;;;;;;33.75;25.75;;;;;13.27;49.77;102127.72;4944739;28;45503;-69
2022/05/01 07:04:34;;;;;;;;;31.00;24.25;;;;;13.31;49.84;102134.59;4943964;28;46326;-69
2022/05/01 07:07:00;;;;;;;;;29.50;26.25;;;;;13.33;50.03;102122.97;4927105;28;45285;-69
2022/05/01 07:09:25;;;;;;;;;28.50;25.75;;;;;13.37;49.74;102126.34;4944220;28;45220;-68
2022/05/01 07:11:51;;;;;;;;;27.50;24.00;;;;;13.37;49.63;102126.34;4944498;28;45254;-69
2022/05/01 07:14:16;;;;;;;;;28.00;25.75;;;;;13.38;49.85;102125.41;4926629;28;47705;-69
2022/05/01 07:16:42;;;;;;;;;27.00;25.25;;;;;13.42;49.96;102124.31;4944434;28;45156;-69
2022/05/01 07:19:07;;;;;;;;;28.00;23.00;;;;;13.48;49.43;102123.16;4926592;28;45379;-69
2022/05/01 07:21:33;;;;;;;;;27.75;25.50;;;;;13.52;49.69;102122.09;4944284;28;45317;-69
2022/05/01 07:23:58;;;;;;;;;29.25;26.50;;;;;13.56;49.65;102121.84;4944150;28;45240;-69
2022/05/01 07:26:25;;;;;;;;;25.25;23.00;;;;;13.62;49.67;102118.06;4926741;28;45378;-69
2022/05/01 07:28:51;;;;;;;;;33.00;24.75;;;;;13.68;49.70;102126.56;4944277;28;45339;-69
2022/05/01 07:31:16;;;;;;;;;32.00;30.75;;;;;13.67;49.33;102127.50;4944235;28;45317;-69
2022/05/01 07:33:42;;;;;;;;;22.75;21.25;;;;;13.66;49.61;102123.09;4943749;28;46311;-68
2022/05/01 07:36:07;;;;;;;;;34.50;29.00;;;;;13.66;49.76;102125.75;4944080;28;45388;-69
2022/05/01 07:38:33;;;;;;;;;25.50;21.75;;;;;13.74;49.40;102132.47;4943912;28;45273;-68
2022/05/01 07:40:58;;;;;;;;;19.75;19.75;;;;;13.72;49.34;102129.03;4943802;28;45160;-68
2022/05/01 07:43:24;;;;;;;;;29.50;27.25;;;;;13.74;49.34;102132.47;4943646;28;46056;-69
2022/05/01 07:45:49;;;;;;;;;30.50;25.50;;;;;13.72;49.44;102121.09;4943916;28;45266;-69
2022/05/01 07:48:15;;;;;;;;;25.25;22.75;;;;;13.75;49.51;102119.16;4943247;28;45292;-70
2022/05/01 07:50:41;;;;;;;;;35.25;26.00;;;;;13.79;49.40;102115.41;4943819;28;45217;-69
2022/05/01 07:53:06;;;;;;;;;25.50;23.75;;;;;13.86;49.62;102110.66;4943485;28;45333;-69
2022/05/01 07:55:33;;;;;;;;;26.00;23.50;;;;;13.93;49.30;102114.72;4943645;28;45458;-69
2022/05/01 07:57:58;;;;;;;;;27.75;23.00;;;;;14.00;49.09;102104.66;4926369;28;45465;-69
2022/05/01 08:00:24;;;;;;;;;27.25;23.25;;;;;14.05;48.82;102108.75;4943706;28;45408;-69
2022/05/01 08:05:33;;;;;;;;;33.75;26.50;;;;;14.13;48.81;102106.56;4943526;28;45448;-69
2022/05/01 08:07:59;;;;;;;;;31.50;26.50;;;;;14.20;48.70;102088.56;4943486;28;45470;-69
2022/05/01 08:10:25;;;;;;;;;28.50;24.25;;;;;14.24;48.58;102098.94;4943414;28;45353;-69
2022/05/01 08:12:50;;;;;;;;;23.00;21.00;;;;;14.21;48.26;102104.38;4943263;28;46052;-69
2022/05/01 08:15:17;;;;;;;;;25.25;20.50;;;;;14.22;47.69;102106.13;4943242;28;45599;-69
2022/05/01 08:17:44;;;;;;;;;23.00;21.00;;;;;14.18;46.78;102103.69;4943106;28;45308;-69
2022/05/01 08:23:00;;;;;;;;;26.25;22.25;;;;;14.17;47.83;102102.84;4943053;28;45336;-68
2022/05/01 08:25:25;;;;;;;;;23.50;21.25;;;;;14.22;47.70;102099.97;4943116;28;45372;-69
2022/05/01 08:27:51;;;;;;;;;28.75;25.25;;;;;14.26;47.86;102101.50;4942955;28;45325;-69
2022/05/01 08:30:16;;;;;;;;;23.50;22.50;;;;;14.34;48.40;102095.78;4943172;28;45326;-69
2022/05/01 08:32:42;;;;;;;;;24.00;20.25;;;;;14.42;47.86;102082.97;4942722;28;46120;-69
2022/05/01 08:35:08;;;;;;;;;28.50;26.75;;;;;14.47;47.85;102081.81;4943136;28;45224;-69
2022/05/01 08:37:33;;;;;;;;;24.25;22.25;;;;;14.49;47.78;102079.09;4943348;28;45212;-69
2022/05/01 08:39:59;;;;;;;;;27.25;22.00;;;;;14.52;47.33;102071.81;4925616;28;45244;-69
2022/05/01 08:42:28;;;;;;;;;23.00;19.25;;;;;14.61;47.18;102075.75;4942655;28;46084;-69
2022/05/01 08:44:54;;;;;;;;;25.00;22.50;;;;;14.68;46.96;102077.13;4925519;28;45365;-69
2022/05/01 08:47:38;;;;;;;;;25.00;22.75;;;;;14.69;46.42;102075.31;4942907;28;45312;-69
2022/05/01 08:50:08;;;;;;;;;25.50;23.25;;;;;14.74;46.71;102073.28;4942759;28;45326;-69
2022/05/01 08:52:37;;;;;;;;;25.50;21.75;;;;;14.78;46.85;102077.50;4942906;28;45378;-69
2022/05/01 08:55:05;;;;;;;;;27.25;22.75;;;;;14.84;46.65;102077.13;4942419;28;45353;-69
2022/05/01 08:57:33;;;;;;;;;21.50;21.50;;;;;14.96;46.24;102072.94;4942924;28;45418;-69
2022/05/01 08:59:59;;;;;;;;;29.00;21.25;;;;;14.99;45.86;102070.97;4924897;28;45258;-69
2022/05/01 09:02:25;;;;;;;;;24.00;21.25;;;;;15.05;45.42;102067.13;4942595;28;46216;-69
2022/05/01 09:04:51;;;;;;;;;26.00;18.25;;;;;15.13;45.82;102074.66;4942373;28;45348;-68
2022/05/01 09:07:16;;;;;;;;;21.75;18.00;;;;;15.16;45.68;102063.84;4942768;28;45216;-68
2022/05/01 09:09:42;;;;;;;;;21.25;17.00;;;;;15.20;45.54;102062.75;4957448;28;45474;-68
2022/05/01 09:14:52;;;;;;;;;25.50;20.00;;;;;15.26;44.75;102067.69;4942355;28;45291;-69
2022/05/01 09:17:20;;;;;;;;;21.50;20.25;;;;;15.28;44.55;102066.66;4942749;28;45345;-68
2022/05/01 09:19:48;;;;;;;;;19.00;17.75;;;;;15.36;43.80;102063.56;4942317;28;45312;-69
2022/05/01 09:22:16;;;;;;;;;20.00;18.00;;;;;15.47;44.58;102053.16;4942245;28;45251;-69
2022/05/01 09:24:41;;;;;;;;;22.00;17.75;;;;;15.59;44.71;102060.41;4942556;28;45236;-69
2022/05/01 09:27:33;;;;;;;;;19.75;16.75;;;;;15.62;43.40;102060.25;4942252;28;45203;-69
2022/05/01 09:30:16;;;;;;;;;25.75;20.75;;;;;15.69;43.59;102051.94;4942331;28;45337;-67
2022/05/01 09:32:42;;;;;;;;;21.25;20.00;;;;;15.79;43.05;102053.94;4941850;28;46172;-68
2022/05/01 09:35:16;;;;;;;;;25.00;23.25;;;;;15.88;42.87;102050.75;4942302;28;45304;-68
2022/05/01 09:37:42;;;;;;;;;20.25;17.00;;;;;15.94;42.03;102062.78;4942376;28;45470;-68
2022/05/01 09:40:09;;;;;;;;;17.25;16.75;;;;;15.96;41.92;102050.28;4942232;28;45562;-68
2022/05/01 09:42:35;;;;;;;;;18.75;16.75;;;;;16.00;42.18;102045.63;4942004;28;45414;-68
2022/05/01 09:45:15;;;;;;;;;20.25;19.00;;;;;16.02;41.94;102036.59;4942103;28;45265;-68
2022/05/01 09:47:45;;;;;;;;;19.25;16.00;;;;;16.06;41.92;102043.44;4924755;28;45347;-69
2022/05/01 09:50:13;;;;;;;;;15.50;14.00;;;;;16.13;41.99;102034.13;4924928;28;45230;-69
2022/05/01 09:53:01;;;;;;;;;17.25;17.00;;;;;16.23;41.66;102034.41;4942017;28;45282;-68
2022/05/01 09:55:28;;;;;;;;;17.00;15.25;;;;;16.23;41.47;102042.38;4941754;28;45417;-68
2022/05/01 09:58:05;;;;;;;;;18.75;16.00;;;;;16.22;40.92;102043.34;4924837;28;45274;-69
2022/05/01 10:00:47;;;;;;;;;27.25;22.25;;;;;16.22;40.89;102039.84;4941919;28;45251;-69
2022/05/01 10:03:28;;;;;;;;;18.75;17.25;;;;;16.24;41.26;102035.28;4942490;28;45579;-69
2022/05/01 10:05:55;;;;;;;;;20.75;16.50;;;;;16.28;41.02;102020.84;4941907;28;45426;-69
2022/05/01 10:08:21;;;;;;;;;14.50;13.75;;;;;16.36;41.11;102023.88;4941832;28;45308;-68
2022/05/01 10:10:49;;;;;;;;;16.75;15.75;;;;;16.43;40.32;102034.03;4942406;28;45431;-68
2022/05/01 10:13:16;;;;;;;;;20.00;17.50;;;;;16.44;40.14;102033.06;4945079;28;46203;-68
2022/05/01 10:15:42;;;;;;;;;16.75;14.75;;;;;16.47;40.38;102024.88;4945137;28;45309;-69
2022/05/01 10:18:10;;;;;;;;;16.00;15.00;;;;;16.55;40.38;102031.53;4945174;28;45286;-69
2022/05/01 10:20:37;;;;;;;;;16.50;15.50;;;;;16.59;40.54;102025.94;4945039;28;45602;-68
2022/05/01 10:23:03;;;;;;;;;15.50;15.00;;;;;16.66;40.14;102021.91;4945151;28;45256;-68
2022/05/01 10:25:35;;;;;;;;;22.25;18.50;;;;;16.67;40.19;102013.00;4927449;28;45251;-69
2022/05/01 10:28:12;;;;;;;;;16.75;16.75;;;;;16.71;40.04;102011.00;4945211;28;45300;-68
2022/05/01 10:33:57;;;;;;;;;20.75;16.25;;;;;16.83;39.50;102010.22;4944629;28;45234;-67
2022/05/01 10:36:58;;;;;;;;;11.00;11.00;;;;;16.90;40.11;101995.53;4927494;28;45473;-67
2022/05/01 10:39:24;;;;;;;;;18.00;16.50;;;;;16.95;39.83;101987.25;4944894;28;45273;-68
2022/05/01 10:41:50;;;;;;;;;17.00;15.00;;;;;16.99;39.89;101991.44;4943266;28;45376;-67
2022/05/01 10:44:30;;;;;;;;;19.25;15.75;;;;;17.01;39.10;101986.84;4944686;28;45237;-68
2022/05/01 10:47:05;;;;;;;;;14.00;12.25;;;;;17.05;38.83;101983.00;4944452;28;45274;-67
2022/05/01 10:49:36;;;;;;;;;18.00;12.75;;;;;17.12;39.05;101979.00;4944426;28;45326;-68
2022/05/01 10:52:22;;;;;;;;;14.50;11.00;;;;;17.17;38.86;101982.22;4944431;28;45525;-68
2022/05/01 10:54:58;;;;;;;;;13.50;11.25;;;;;17.31;39.11;101978.63;4944142;28;45902;-68
2022/05/01 10:57:25;;;;;;;;;12.50;10.75;;;;;17.42;38.62;101973.41;4944569;28;45474;-69
2022/05/01 11:00:03;;;;;;;;;15.25;12.50;;;;;17.47;38.52;101968.63;4944919;28;45243;-68
2022/05/01 11:02:35;;;;;;;;;18.75;15.50;;;;;17.53;38.46;101972.66;4944530;28;45245;-68
2022/05/01 11:05:01;;;;;;;;;15.50;14.75;;;;;17.49;38.56;101966.69;4944076;28;46179;-68
2022/05/01 11:07:28;;;;;;;;;14.50;14.50;;;;;17.49;38.09;101966.69;4944309;28;45351;-68
2022/05/01 11:09:57;;;;;;;;;14.50;12.00;;;;;17.49;38.44;101966.69;4944143;28;45318;-68
2022/05/01 11:12:24;;;;;;;;;13.25;11.00;;;;;17.52;37.93;101960.28;4944451;28;45389;-68
2022/05/01 11:14:56;;;;;;;;;11.50;11.25;;;;;17.57;37.87;101972.34;4943998;28;45479;-67
2022/05/01 11:17:42;;;;;;;;;15.50;12.75;;;;;17.50;37.74;101964.88;4943993;28;45270;-68
2022/05/01 11:20:19;;;;;;;;;19.50;15.75;;;;;17.47;37.74;101963.28;4944113;28;45312;-68
2022/05/01 11:22:45;;;;;;;;;11.75;11.75;;;;;17.46;37.87;101950.09;4943566;28;45335;-68
2022/05/01 11:25:17;;;;;;;;;15.75;12.00;;;;;17.47;37.88;101947.31;4944042;28;46219;-68
2022/05/01 11:27:53;;;;;;;;;14.25;13.75;;;;;17.46;37.82;101942.94;4944006;28;45451;-67
2022/05/01 11:30:28;;;;;;;;;16.75;12.50;;;;;17.43;37.83;101950.28;4944191;28;45397;-67
2022/05/01 11:33:02;;;;;;;;;10.50;10.50;;;;;17.38;38.05;101939.06;4943941;28;45342;-68
2022/05/01 11:36:00;;;;;;;;;13.50;11.75;;;;;17.34;37.89;101937.59;4943785;28;45640;-68
2022/05/01 11:38:38;;;;;;;;;14.25;13.75;;;;;17.35;37.77;101932.16;4944004;28;45297;-68
2022/05/01 11:41:05;;;;;;;;;17.25;12.75;;;;;17.39;37.97;101923.00;4943814;28;45508;-68